createdAt,value
2019-02-04T00:01:54.806Z,67.63
2019-02-04T00:04:24.608Z,70.13
2019-02-04T00:06:54.377Z,50.83
2019-02-04T00:09:24.061Z,38.30
2019-02-04T00:11:54.151Z,38.53
2019-02-04T00:14:23.813Z,37.97
2019-02-04T00:16:53.386Z,38.53
2019-02-04T00:19:23.161Z,31.73
2019-02-04T00:21:52.860Z,29.67
2019-02-04T00:24:22.422Z,31.37
2019-02-04T00:26:52.140Z,39.43
2019-02-04T00:29:21.708Z,30.40
2019-02-04T00:31:51.505Z,35.10
2019-02-04T00:34:21.111Z,29.10
2019-02-04T00:36:50.748Z,44.93
2019-02-04T00:39:20.695Z,32.13
2019-02-04T00:41:50.244Z,34.83
2019-02-04T00:44:19.940Z,29.47
2019-02-04T00:46:52.272Z,30.00
2019-02-04T00:49:20.815Z,35.67
2019-02-04T00:51:50.495Z,36.33
2019-02-04T00:54:20.441Z,28.73
2019-02-04T00:56:50.196Z,32.23
2019-02-04T00:59:19.877Z,33.60
2019-02-04T01:01:49.651Z,26.67
2019-02-04T01:04:19.470Z,30.43
2019-02-04T01:06:49.241Z,31.63
2019-02-04T01:09:18.834Z,32.43
2019-02-04T01:11:48.429Z,27.33
2019-02-04T01:14:18.189Z,30.57
2019-02-04T01:16:47.766Z,36.33
2019-02-04T01:19:17.538Z,28.17
2019-02-04T01:21:47.324Z,34.30
2019-02-04T01:24:17.093Z,26.97
2019-02-04T01:26:46.881Z,27.00
2019-02-04T01:29:16.590Z,34.37
2019-02-04T01:31:46.066Z,31.13
2019-02-04T01:34:15.702Z,36.17
2019-02-04T01:36:45.347Z,32.83
2019-02-04T01:39:14.843Z,40.10
2019-02-04T01:41:44.516Z,25.97
2019-02-04T01:44:14.188Z,32.57
2019-02-04T01:46:43.769Z,31.40
2019-02-04T01:49:13.698Z,29.33
2019-02-04T01:51:43.272Z,44.27
2019-02-04T01:54:12.929Z,31.30
2019-02-04T01:56:42.482Z,28.37
2019-02-04T01:59:12.242Z,29.70
2019-02-04T02:01:41.968Z,39.50
2019-02-04T02:04:11.557Z,40.23
2019-02-04T02:06:41.328Z,32.30
2019-02-04T02:09:21.678Z,28.97
2019-02-04T02:11:51.524Z,33.27
2019-02-04T02:14:21.205Z,32.90
2019-02-04T02:16:50.884Z,25.40
2019-02-04T02:19:20.751Z,30.60
2019-02-04T02:21:50.788Z,30.20
2019-02-04T02:24:20.621Z,29.50
2019-02-04T02:26:50.296Z,43.57
2019-02-04T02:29:19.997Z,31.73
2019-02-04T02:31:49.649Z,33.33
2019-02-04T02:34:19.322Z,27.23
2019-02-04T02:36:49.207Z,31.87
2019-02-04T02:39:18.731Z,37.93
2019-02-04T02:41:48.352Z,34.37
2019-02-04T02:44:18.100Z,30.13
2019-02-04T02:46:47.806Z,30.13
2019-02-04T02:49:17.394Z,25.43
2019-02-04T02:51:47.174Z,32.77
2019-02-04T02:54:17.139Z,32.17
2019-02-04T02:56:47.145Z,31.10
2019-02-04T02:59:16.685Z,28.17
2019-02-04T03:01:46.493Z,28.37
2019-02-04T03:04:16.276Z,22.67
2019-02-04T03:06:45.895Z,29.03
2019-02-04T03:09:15.710Z,29.70
2019-02-04T03:11:45.409Z,31.33
2019-02-04T03:14:15.016Z,28.00
2019-02-04T03:16:44.577Z,38.73
2019-02-04T03:19:14.478Z,33.87
2019-02-04T03:21:44.085Z,30.57
2019-02-04T03:24:14.128Z,36.13
2019-02-04T03:26:43.740Z,34.57
2019-02-04T03:29:13.491Z,31.37
2019-02-04T03:31:45.967Z,34.77
2019-02-04T03:34:14.628Z,28.17
2019-02-04T03:36:44.387Z,30.63
2019-02-04T03:39:14.098Z,34.73
2019-02-04T03:41:43.736Z,27.57
2019-02-04T03:44:13.527Z,28.77
2019-02-04T03:46:43.310Z,35.37
2019-02-04T03:49:12.927Z,31.13
2019-02-04T03:51:42.717Z,26.73
2019-02-04T03:54:12.376Z,37.40
2019-02-04T03:56:42.081Z,33.20
2019-02-04T03:59:12.034Z,42.90
2019-02-04T04:01:41.760Z,34.03
2019-02-04T04:04:11.487Z,47.73
2019-02-04T04:06:41.163Z,36.77
2019-02-04T04:09:11.062Z,43.10
2019-02-04T04:11:40.843Z,35.57
2019-02-04T04:14:10.620Z,32.60
2019-02-04T04:16:40.221Z,32.97
2019-02-04T04:19:10.281Z,44.50
2019-02-04T04:21:39.894Z,43.63
2019-02-04T04:24:09.589Z,44.13
2019-02-04T04:26:39.446Z,66.17
2019-02-04T04:29:09.216Z,54.20
2019-02-04T04:33:39.364Z,46.97
2019-02-04T04:36:08.994Z,37.20
2019-02-04T04:38:39.008Z,50.37
2019-02-04T04:41:08.814Z,37.97
2019-02-04T04:43:38.571Z,50.20
2019-02-04T04:46:08.310Z,43.60
2019-02-04T04:48:37.931Z,49.97
2019-02-04T04:51:07.548Z,39.37
2019-02-04T04:53:37.265Z,118.30
2019-02-04T04:56:06.811Z,70.20
2019-02-04T04:58:36.429Z,49.17
2019-02-04T05:01:06.314Z,60.07
2019-02-04T05:03:36.042Z,65.40
2019-02-04T05:06:05.770Z,54.03
2019-02-04T05:08:35.536Z,57.97
2019-02-04T05:11:05.205Z,109.90
2019-02-04T05:13:35.108Z,71.10
2019-02-04T05:16:04.772Z,147.50
2019-02-04T05:18:38.200Z,64.07
2019-02-04T05:21:05.958Z,58.33
2019-02-04T05:23:35.731Z,61.23
2019-02-04T05:26:05.576Z,63.93
2019-02-04T05:28:35.102Z,58.70
2019-02-04T05:31:04.782Z,61.67
2019-02-04T05:33:34.394Z,47.00
2019-02-04T05:36:06.012Z,54.00
2019-02-04T05:38:35.281Z,67.83
2019-02-04T05:41:05.043Z,62.23
2019-02-04T05:43:34.652Z,89.43
2019-02-04T05:46:04.566Z,112.03
2019-02-04T05:48:34.234Z,70.47
2019-02-04T05:51:03.912Z,75.67
2019-02-04T05:53:33.521Z,62.93
2019-02-04T05:56:03.222Z,73.40
2019-02-04T05:58:33.247Z,69.10
2019-02-04T06:01:02.866Z,59.37
2019-02-04T06:03:32.461Z,52.03
2019-02-04T06:06:02.076Z,62.23
2019-02-04T06:08:31.906Z,62.67
2019-02-04T06:11:01.871Z,58.80
2019-02-04T06:13:31.507Z,62.70
2019-02-04T06:16:02.624Z,53.97
2019-02-04T06:18:32.256Z,63.40
2019-02-04T06:21:04.075Z,62.20
2019-02-04T06:23:33.347Z,97.97
2019-02-04T06:26:03.010Z,63.10
2019-02-04T06:28:32.590Z,68.47
2019-02-04T06:31:02.322Z,52.47
2019-02-04T06:33:32.042Z,48.20
2019-02-04T06:36:01.829Z,39.40
2019-02-04T06:38:31.527Z,36.87
2019-02-04T06:41:01.263Z,46.03
2019-02-04T06:43:31.263Z,52.57
2019-02-04T06:46:01.131Z,49.90
2019-02-04T06:48:30.705Z,47.43
2019-02-04T06:51:00.492Z,36.30
2019-02-04T06:53:30.203Z,45.00
2019-02-04T06:55:59.853Z,33.63
2019-02-04T06:58:29.560Z,33.13
2019-02-04T07:00:59.251Z,31.43
2019-02-04T07:03:28.872Z,33.37
2019-02-04T07:05:58.621Z,35.03
2019-02-04T07:08:28.335Z,40.40
2019-02-04T07:10:58.208Z,39.73
2019-02-04T07:13:27.667Z,35.63
2019-02-04T07:15:57.476Z,41.33
2019-02-04T07:18:27.073Z,50.40
2019-02-04T07:20:56.743Z,53.20
2019-02-04T07:23:26.490Z,62.03
2019-02-04T07:25:56.315Z,50.77
2019-02-04T07:28:25.885Z,60.60
2019-02-04T07:30:55.452Z,54.87
2019-02-04T07:33:25.344Z,57.17
2019-02-04T07:35:54.959Z,50.93
2019-02-04T07:38:24.648Z,54.20
2019-02-04T07:40:54.565Z,49.03
2019-02-04T07:43:24.600Z,50.97
2019-02-04T07:45:54.274Z,51.17
2019-02-04T07:48:23.991Z,57.83
2019-02-04T07:50:53.679Z,55.50
2019-02-04T07:53:23.503Z,48.03
2019-02-04T07:55:53.259Z,46.87
2019-02-04T07:58:23.097Z,42.37
2019-02-04T08:00:52.854Z,50.00
2019-02-04T08:03:22.419Z,54.87
2019-02-04T08:05:52.001Z,77.23
2019-02-04T08:08:21.779Z,45.23
2019-02-04T08:10:51.530Z,35.67
2019-02-04T08:13:21.286Z,33.80
2019-02-04T08:15:50.953Z,27.97
2019-02-04T08:18:20.731Z,32.93
2019-02-04T08:20:50.334Z,36.53
2019-02-04T08:23:20.349Z,33.63
2019-02-04T08:25:49.901Z,28.40
2019-02-04T08:28:19.439Z,34.00
2019-02-04T08:30:49.063Z,35.10
2019-02-04T08:33:18.755Z,67.83
2019-02-04T08:35:48.513Z,60.10
2019-02-04T08:38:18.440Z,68.23
2019-02-04T08:40:48.181Z,58.77
2019-02-04T08:43:17.860Z,79.47
2019-02-04T08:45:47.645Z,67.30
2019-02-04T08:48:17.202Z,71.00
2019-02-04T08:50:46.936Z,68.27
2019-02-04T08:53:16.899Z,85.07
2019-02-04T08:55:48.329Z,88.00
2019-02-04T08:58:18.074Z,81.53
2019-02-04T09:00:47.965Z,108.07
2019-02-04T09:03:17.671Z,96.20
2019-02-04T09:05:47.299Z,74.37
2019-02-04T09:08:17.478Z,70.67
2019-02-04T09:10:47.311Z,67.70
2019-02-04T09:13:17.074Z,62.47
2019-02-04T09:15:46.752Z,71.03
2019-02-04T09:18:16.539Z,64.17
2019-02-04T09:20:46.047Z,65.97
2019-02-04T09:23:15.862Z,63.27
2019-02-04T09:25:45.503Z,74.37
2019-02-04T09:28:15.025Z,76.03
2019-02-04T09:30:44.619Z,71.03
2019-02-04T09:33:14.392Z,67.33
2019-02-04T09:35:44.045Z,66.20
2019-02-04T09:38:14.178Z,57.40
2019-02-04T09:40:45.370Z,66.23
2019-02-04T09:43:15.193Z,66.93
2019-02-04T09:45:45.631Z,65.50
2019-02-04T09:48:18.677Z,73.97
2019-02-04T09:50:50.447Z,67.87
2019-02-04T09:53:20.087Z,67.60
2019-02-04T09:55:49.878Z,74.33
2019-02-04T09:58:19.706Z,65.13
2019-02-04T10:00:49.524Z,70.37
2019-02-04T10:03:19.358Z,55.73
2019-02-04T10:08:15.627Z,58.90
2019-02-04T10:10:45.413Z,51.67
2019-02-04T10:13:15.128Z,54.80
2019-02-04T10:15:45.846Z,52.87
2019-02-04T10:18:16.091Z,44.70
2019-02-04T10:20:45.823Z,51.40
2019-02-04T10:23:15.659Z,46.27
2019-02-04T10:25:45.388Z,45.63
2019-02-04T10:28:16.002Z,51.77
2019-02-04T10:30:45.683Z,53.37
2019-02-04T10:33:15.814Z,42.87
2019-02-04T10:35:46.849Z,52.93
2019-02-04T10:38:16.855Z,45.07
2019-02-04T10:40:46.862Z,47.30
2019-02-04T10:43:16.596Z,48.50
2019-02-04T10:45:46.365Z,51.83
2019-02-04T10:48:15.872Z,47.63
2019-02-04T10:50:47.036Z,53.67
2019-02-04T10:53:17.139Z,43.43
2019-02-04T10:55:46.916Z,53.13
2019-02-04T10:58:16.774Z,53.73
2019-02-04T11:00:46.887Z,53.63
2019-02-04T11:03:16.694Z,50.50
2019-02-04T11:05:47.987Z,42.37
2019-02-04T11:08:17.928Z,56.40
2019-02-04T11:10:47.767Z,60.83
2019-02-04T11:13:18.262Z,46.47
2019-02-04T11:15:50.178Z,53.57
2019-02-04T11:18:20.131Z,50.67
2019-02-04T11:20:57.714Z,60.40
2019-02-04T11:23:21.233Z,40.60
2019-02-04T11:25:51.193Z,53.77
2019-02-04T11:28:21.179Z,53.10
2019-02-04T11:30:54.096Z,50.20
2019-02-04T11:33:23.910Z,49.53
2019-02-04T11:35:53.818Z,46.83
2019-02-04T11:38:23.549Z,57.83
2019-02-04T11:40:53.607Z,70.03
2019-02-04T11:43:23.293Z,84.37
2019-02-04T11:45:54.958Z,71.63
2019-02-04T11:48:24.786Z,83.47
2019-02-04T11:50:54.657Z,76.70
2019-02-04T11:56:04.221Z,84.50
2019-02-04T11:58:33.886Z,74.97
2019-02-04T12:01:03.589Z,80.30
2019-02-04T12:03:33.434Z,72.47
2019-02-04T12:06:03.185Z,61.30
2019-02-04T12:08:33.070Z,69.57
2019-02-04T12:11:07.052Z,58.10
2019-02-04T12:13:36.724Z,52.83
2019-02-04T12:16:06.318Z,56.13
2019-02-04T12:18:36.016Z,49.23
2019-02-04T12:21:06.171Z,53.37
2019-02-04T12:23:35.934Z,54.50
2019-02-04T12:26:05.762Z,57.20
2019-02-04T12:28:35.490Z,53.30
2019-02-04T12:31:05.469Z,44.77
2019-02-04T12:33:35.100Z,40.10
2019-02-04T12:36:05.015Z,66.00
2019-02-04T12:38:34.696Z,59.90
2019-02-04T12:41:04.578Z,91.33
2019-02-04T12:43:34.311Z,84.30
2019-02-04T12:46:04.551Z,82.57
2019-02-04T12:48:34.224Z,79.60
2019-02-04T12:51:04.004Z,76.67
2019-02-04T12:53:33.729Z,87.43
2019-02-04T12:56:03.401Z,86.00
2019-02-04T12:58:33.084Z,75.20
2019-02-04T13:01:02.820Z,86.77
2019-02-04T13:03:32.675Z,77.93
2019-02-04T13:06:03.614Z,85.03
2019-02-04T13:08:33.265Z,76.80
2019-02-04T13:11:02.848Z,83.37
2019-02-04T13:13:32.662Z,73.60
2019-02-04T13:16:02.370Z,73.97
2019-02-04T13:18:32.035Z,78.03
2019-02-04T13:21:02.668Z,72.33
2019-02-04T13:23:32.403Z,72.30
2019-02-04T13:26:02.081Z,67.60
2019-02-04T13:28:31.745Z,69.83
2019-02-04T13:31:01.524Z,71.53
2019-02-04T13:33:31.220Z,87.37
2019-02-04T13:36:01.037Z,90.13
2019-02-04T13:38:30.712Z,89.47
2019-02-04T13:41:08.347Z,85.07
2019-02-04T13:43:32.021Z,76.17
2019-02-04T13:46:01.794Z,79.53
2019-02-04T13:48:31.507Z,64.13
2019-02-04T13:51:01.294Z,79.03
2019-02-04T13:53:30.890Z,65.83
2019-02-04T13:56:00.750Z,72.77
2019-02-04T13:58:30.885Z,61.97
2019-02-04T14:01:00.597Z,72.70
2019-02-04T14:03:30.292Z,53.73
2019-02-04T14:06:00.418Z,64.67
2019-02-04T14:08:30.292Z,67.17
2019-02-04T14:10:59.877Z,57.97
2019-02-04T14:13:29.759Z,56.80
2019-02-04T14:15:59.427Z,54.93
2019-02-04T14:18:29.342Z,52.30
2019-02-04T14:20:59.080Z,61.77
2019-02-04T14:23:28.772Z,60.70
2019-02-04T14:25:58.702Z,64.43
2019-02-04T14:28:31.403Z,49.07
2019-02-04T14:31:00.088Z,67.87
2019-02-04T14:33:29.828Z,63.53
2019-02-04T14:35:59.405Z,78.13
2019-02-04T14:38:29.232Z,62.00
2019-02-04T14:40:59.008Z,61.37
2019-02-04T14:43:55.645Z,60.97
2019-02-04T14:46:41.333Z,56.20
2019-02-04T14:49:47.828Z,59.73
2019-02-04T14:53:00.615Z,63.87
2019-02-04T14:55:58.392Z,63.63
2019-02-04T14:58:42.650Z,60.87
2019-02-04T15:01:48.403Z,56.73
2019-02-04T15:04:39.115Z,53.30
2019-02-04T15:07:50.449Z,42.97
2019-02-04T15:10:50.915Z,48.83
2019-02-04T15:14:14.123Z,47.43
2019-02-04T15:17:14.285Z,52.00
2019-02-04T15:20:26.396Z,56.60
2019-02-04T15:23:48.621Z,45.10
2019-02-04T15:27:01.959Z,52.13
2019-02-04T15:29:48.193Z,49.17
2019-02-04T15:32:46.045Z,55.87
2019-02-04T15:35:50.239Z,56.47
2019-02-04T15:38:51.214Z,44.53
2019-02-04T15:41:53.360Z,50.57
2019-02-04T15:44:52.883Z,46.33
2019-02-04T15:47:28.306Z,42.57
2019-02-04T15:50:23.330Z,40.67
2019-02-04T15:52:53.046Z,53.17
2019-02-04T15:55:22.816Z,54.73
2019-02-04T15:57:52.569Z,53.47
2019-02-04T16:00:22.378Z,43.43
2019-02-04T16:02:52.178Z,54.13
2019-02-04T16:05:22.207Z,48.67
2019-02-04T16:07:51.821Z,51.07
2019-02-04T16:10:21.440Z,56.90
2019-02-04T16:12:51.063Z,60.03
2019-02-04T16:15:20.688Z,55.30
2019-02-04T16:17:50.410Z,61.30
2019-02-04T16:20:24.817Z,54.13
2019-02-04T16:22:58.687Z,54.53
2019-02-04T16:25:26.211Z,61.73
2019-02-04T16:27:55.885Z,50.43
2019-02-04T16:30:25.610Z,59.70
2019-02-04T16:32:55.748Z,55.47
2019-02-04T16:35:25.749Z,78.80
2019-02-04T16:37:55.498Z,66.60
2019-02-04T16:40:25.173Z,54.60
2019-02-04T16:42:54.870Z,63.30
2019-02-04T16:45:24.929Z,58.50
2019-02-04T16:47:54.831Z,63.23
2019-02-04T16:50:26.542Z,52.93
2019-02-04T16:52:56.599Z,65.37
2019-02-04T16:55:26.563Z,65.47
2019-02-04T16:57:57.443Z,64.87
2019-02-04T17:00:32.154Z,62.23
2019-02-04T17:03:01.811Z,67.23
2019-02-04T17:05:31.841Z,58.70
2019-02-04T17:08:01.388Z,66.70
2019-02-04T17:10:31.189Z,63.47
2019-02-04T17:13:01.915Z,63.13
2019-02-04T17:15:31.511Z,61.30
2019-02-04T17:18:01.276Z,56.73
2019-02-04T17:20:33.101Z,58.37
2019-02-04T17:23:02.811Z,59.27
2019-02-04T17:25:32.476Z,58.00
2019-02-04T17:28:02.695Z,64.97
2019-02-04T17:30:32.406Z,65.77
2019-02-04T17:33:02.341Z,65.97
2019-02-04T17:35:32.176Z,61.60
2019-02-04T17:38:04.085Z,53.90
2019-02-04T17:40:33.483Z,59.17
2019-02-04T17:43:03.346Z,61.47
2019-02-04T17:45:33.159Z,58.07
2019-02-04T17:48:03.049Z,55.27
2019-02-04T17:50:32.814Z,59.80
2019-02-04T17:53:02.537Z,59.90
2019-02-04T17:55:32.040Z,64.57
2019-02-04T17:58:01.786Z,56.50
2019-02-04T18:00:44.476Z,83.83
2019-02-04T18:03:14.406Z,73.87
2019-02-04T18:05:45.581Z,77.97
2019-02-04T18:08:15.888Z,75.97
2019-02-04T18:10:45.477Z,66.97
2019-02-04T18:13:15.297Z,76.13
2019-02-04T18:15:44.892Z,65.90
2019-02-04T18:18:14.633Z,69.47
2019-02-04T18:20:44.361Z,66.30
2019-02-04T18:23:14.128Z,67.10
2019-02-04T18:25:43.685Z,67.00
2019-02-04T18:28:13.466Z,66.10
2019-02-04T18:30:43.064Z,66.37
2019-02-04T18:33:12.927Z,72.37
2019-02-04T18:35:43.065Z,70.77
2019-02-04T18:38:12.883Z,70.83
2019-02-04T18:40:42.515Z,68.40
2019-02-04T18:43:12.125Z,59.83
2019-02-04T18:45:41.784Z,53.17
2019-02-04T18:48:11.522Z,46.07
2019-02-04T18:50:41.705Z,53.17
2019-02-04T18:53:11.570Z,53.17
2019-02-04T18:55:41.224Z,46.93
2019-02-04T18:58:10.975Z,48.27
2019-02-04T19:00:40.679Z,52.80
2019-02-04T19:03:17.434Z,47.17
2019-02-04T19:05:41.790Z,43.13
2019-02-04T19:08:11.516Z,44.00
2019-02-04T19:10:42.466Z,40.03
2019-02-04T19:13:12.408Z,38.89
2019-02-04T19:15:42.520Z,48.07
2019-02-04T19:18:14.680Z,49.40
2019-02-04T19:20:44.532Z,46.47
2019-02-04T19:23:14.321Z,45.00
2019-02-04T19:25:43.972Z,48.47
2019-02-04T19:28:13.572Z,45.53
2019-02-04T19:30:47.887Z,40.87
2019-02-04T19:33:17.692Z,55.30
2019-02-04T19:35:47.517Z,51.97
2019-02-04T19:38:17.203Z,54.37
2019-02-04T19:40:46.991Z,51.23
2019-02-04T19:43:17.292Z,49.40
2019-02-04T19:45:47.148Z,50.83
2019-02-04T19:48:16.957Z,52.07
2019-02-04T19:50:46.439Z,44.70
2019-02-04T19:53:16.059Z,45.87
2019-02-04T19:55:45.792Z,47.27
2019-02-04T19:58:15.609Z,46.50
2019-02-04T20:00:45.213Z,49.87
2019-02-04T20:03:14.949Z,53.63
2019-02-04T20:05:44.697Z,47.37
2019-02-04T20:08:14.430Z,49.73
2019-02-04T20:10:44.176Z,74.77
2019-02-04T20:13:13.935Z,46.67
2019-02-04T20:15:43.810Z,44.57
2019-02-04T20:18:13.542Z,44.87
2019-02-04T20:20:43.168Z,45.77
2019-02-04T20:23:12.750Z,50.17
2019-02-04T20:25:42.523Z,45.43
2019-02-04T20:28:12.149Z,46.80
2019-02-04T20:30:45.750Z,45.57
2019-02-04T20:33:13.988Z,49.17
2019-02-04T20:35:43.689Z,50.07
2019-02-04T20:38:13.351Z,47.30
2019-02-04T20:40:43.605Z,48.23
2019-02-04T20:43:13.334Z,48.00
2019-02-04T20:45:43.023Z,43.70
2019-02-04T20:48:14.558Z,51.50
2019-02-04T20:50:45.595Z,42.60
2019-02-04T20:53:15.428Z,45.40
2019-02-04T20:55:45.223Z,41.93
2019-02-04T20:58:14.811Z,41.23
2019-02-04T21:00:44.412Z,37.50
2019-02-04T21:03:15.418Z,39.10
2019-02-04T21:05:45.175Z,40.57
2019-02-04T21:08:14.914Z,37.47
2019-02-04T21:10:44.555Z,44.20
2019-02-04T21:13:14.291Z,39.10
2019-02-04T21:15:43.975Z,47.47
2019-02-04T21:18:13.745Z,36.63
2019-02-04T21:20:43.462Z,40.93
2019-02-04T21:23:13.110Z,39.83
2019-02-04T21:25:42.927Z,40.70
2019-02-04T21:28:12.661Z,47.80
2019-02-04T21:30:43.882Z,48.93
2019-02-04T21:33:13.517Z,41.43
2019-02-04T21:35:43.233Z,48.93
2019-02-04T21:38:13.218Z,51.80
2019-02-04T21:40:42.864Z,39.87
2019-02-04T21:43:12.703Z,44.47
2019-02-04T21:45:42.439Z,50.57
2019-02-04T21:48:12.122Z,49.20
2019-02-04T21:50:41.731Z,49.07
2019-02-04T21:53:11.575Z,69.43
2019-02-04T21:55:41.144Z,95.27
2019-02-04T21:58:10.757Z,99.83
2019-02-04T22:00:41.264Z,87.80
2019-02-04T22:03:10.923Z,86.60
2019-02-04T22:05:42.694Z,92.20
2019-02-04T22:08:12.329Z,92.67
2019-02-04T22:10:42.366Z,89.27
2019-02-04T22:13:11.973Z,73.30
2019-02-04T22:15:41.963Z,58.83
2019-02-04T22:18:11.740Z,50.20
2019-02-04T22:20:41.462Z,51.70
2019-02-04T22:23:11.044Z,49.43
2019-02-04T22:25:40.827Z,55.90
2019-02-04T22:28:10.708Z,52.07
2019-02-04T22:30:40.282Z,53.87
2019-02-04T22:33:09.861Z,53.93
2019-02-04T22:35:39.472Z,66.03
2019-02-04T22:38:09.316Z,57.47
2019-02-04T22:40:39.027Z,57.23
2019-02-04T22:43:08.681Z,50.40
2019-02-04T22:45:38.384Z,54.70
2019-02-04T22:48:08.106Z,52.57
2019-02-04T22:50:37.678Z,62.97
2019-02-04T22:53:07.460Z,69.70
2019-02-04T22:55:37.061Z,58.17
2019-02-04T22:58:06.801Z,52.97
2019-02-04T23:01:16.080Z,51.07
2019-02-04T23:03:45.770Z,52.27
2019-02-04T23:06:15.380Z,51.33
2019-02-04T23:08:45.123Z,51.57
2019-02-04T23:11:14.784Z,35.80
2019-02-04T23:13:44.572Z,46.00
2019-02-04T23:16:14.194Z,32.10
2019-02-04T23:18:43.796Z,39.57
2019-02-04T23:21:13.548Z,34.53
2019-02-04T23:23:43.226Z,39.60
2019-02-04T23:26:13.205Z,39.03
2019-02-04T23:28:42.842Z,38.00
2019-02-04T23:31:12.600Z,33.83
2019-02-04T23:33:42.321Z,34.10
2019-02-04T23:36:11.987Z,48.73
2019-02-04T23:38:41.742Z,58.20
2019-02-04T23:41:11.411Z,60.97
2019-02-04T23:43:41.220Z,58.43
2019-02-04T23:46:10.977Z,55.13
2019-02-04T23:48:40.650Z,57.73
2019-02-04T23:51:10.436Z,59.30
2019-02-04T23:53:39.999Z,60.30
2019-02-04T23:56:09.739Z,67.63
2019-02-04T23:58:39.513Z,73.17
